sensor_id;sensor_type;location;lat;lon;timestamp;pressure;altitude;pressure_sealevel;temperature;humidity
64739;BME280;51175;51.186;0.276;2022-08-18T00:00:31;101060.38;;;23.34;57.46
64739;BME280;51175;51.186;0.276;2022-08-18T00:01:01;101062.28;;;23.34;57.42
64739;BME280;51175;51.186;0.276;2022-08-18T00:01:33;101058.78;;;23.33;57.44
64739;BME280;51175;51.186;0.276;2022-08-18T00:02:34;101062.28;;;23.34;57.25
64739;BME280;51175;51.186;0.276;2022-08-18T00:03:07;101066.88;;;23.33;57.44
64739;BME280;51175;51.186;0.276;2022-08-18T00:03:38;101061.50;;;23.33;57.50
64739;BME280;51175;51.186;0.276;2022-08-18T00:04:10;101058.00;;;23.32;57.64
64739;BME280;51175;51.186;0.276;2022-08-18T00:04:41;101062.28;;;23.34;57.45
64739;BME280;51175;51.186;0.276;2022-08-18T00:05:12;101062.28;;;23.34;57.46
64739;BME280;51175;51.186;0.276;2022-08-18T00:05:42;101064.97;;;23.34;57.54
64739;BME280;51175;51.186;0.276;2022-08-18T00:06:13;101056.91;;;23.34;57.45
64739;BME280;51175;51.186;0.276;2022-08-18T00:06:43;101065.78;;;23.34;57.39
64739;BME280;51175;51.186;0.276;2022-08-18T00:07:17;101058.78;;;23.33;57.43
64739;BME280;51175;51.186;0.276;2022-08-18T00:07:48;101066.88;;;23.33;57.55
64739;BME280;51175;51.186;0.276;2022-08-18T00:08:18;101066.06;;;23.32;57.65
64739;BME280;51175;51.186;0.276;2022-08-18T00:08:49;101055.00;;;23.34;57.48
64739;BME280;51175;51.186;0.276;2022-08-18T00:09:19;101058.78;;;23.33;57.57
64739;BME280;51175;51.186;0.276;2022-08-18T00:09:50;101064.97;;;23.34;57.55
64739;BME280;51175;51.186;0.276;2022-08-18T00:10:21;101059.59;;;23.34;57.53
64739;BME280;51175;51.186;0.276;2022-08-18T00:10:51;101054.53;;;23.32;57.60
64739;BME280;51175;51.186;0.276;2022-08-18T00:11:22;101050.72;;;23.33;57.61
64739;BME280;51175;51.186;0.276;2022-08-18T00:11:52;101058.78;;;23.33;57.46
64739;BME280;51175;51.186;0.276;2022-08-18T00:12:56;101056.91;;;23.34;57.48
64739;BME280;51175;51.186;0.276;2022-08-18T00:13:27;101060.69;;;23.32;57.45
64739;BME280;51175;51.186;0.276;2022-08-18T00:13:57;101054.19;;;23.34;57.65
64739;BME280;51175;51.186;0.276;2022-08-18T00:14:28;101056.09;;;23.33;57.67
64739;BME280;51175;51.186;0.276;2022-08-18T00:14:59;101060.69;;;23.32;57.49
64739;BME280;51175;51.186;0.276;2022-08-18T00:15:33;101060.38;;;23.34;57.72
64739;BME280;51175;51.186;0.276;2022-08-18T00:16:04;101059.59;;;23.34;57.55
64739;BME280;51175;51.186;0.276;2022-08-18T00:16:34;101061.50;;;23.33;57.46
64739;BME280;51175;51.186;0.276;2022-08-18T00:17:04;101058.00;;;23.32;57.73
64739;BME280;51175;51.186;0.276;2022-08-18T00:17:35;101058.00;;;23.32;57.74
64739;BME280;51175;51.186;0.276;2022-08-18T00:18:07;101066.06;;;23.32;57.55
64739;BME280;51175;51.186;0.276;2022-08-18T00:18:37;101069.56;;;23.33;57.67
64739;BME280;51175;51.186;0.276;2022-08-18T00:19:07;101061.50;;;23.33;57.53
64739;BME280;51175;51.186;0.276;2022-08-18T00:19:38;101061.50;;;23.33;57.55
64739;BME280;51175;51.186;0.276;2022-08-18T00:20:17;101064.97;;;23.34;57.58
64739;BME280;51175;51.186;0.276;2022-08-18T00:20:47;101066.06;;;23.32;57.62
64739;BME280;51175;51.186;0.276;2022-08-18T00:21:18;101064.50;;;23.31;57.58
64739;BME280;51175;51.186;0.276;2022-08-18T00:21:49;101060.69;;;23.32;57.65
64739;BME280;51175;51.186;0.276;2022-08-18T00:22:20;101067.22;;;23.31;57.51
64739;BME280;51175;51.186;0.276;2022-08-18T00:22:51;101068.78;;;23.32;57.36
64739;BME280;51175;51.186;0.276;2022-08-18T00:23:22;101061.81;;;23.31;57.66
64739;BME280;51175;51.186;0.276;2022-08-18T00:23:53;101068.78;;;23.32;57.40
64739;BME280;51175;51.186;0.276;2022-08-18T00:24:24;101073.41;;;23.32;57.41
64739;BME280;51175;51.186;0.276;2022-08-18T00:24:56;101065.31;;;23.32;57.70
64739;BME280;51175;51.186;0.276;2022-08-18T00:25:26;101079.56;;;23.32;57.56
64739;BME280;51175;51.186;0.276;2022-08-18T00:25:57;101068.00;;;23.32;57.45
64739;BME280;51175;51.186;0.276;2022-08-18T00:26:28;101068.78;;;23.32;57.60
64739;BME280;51175;51.186;0.276;2022-08-18T00:26:59;101069.91;;;23.31;57.48
64739;BME280;51175;51.186;0.276;2022-08-18T00:27:31;101068.00;;;23.32;57.54
64739;BME280;51175;51.186;0.276;2022-08-18T00:28:02;101072.59;;;23.31;57.70
64739;BME280;51175;51.186;0.276;2022-08-18T00:28:33;101075.28;;;23.31;57.80
64739;BME280;51175;51.186;0.276;2022-08-18T00:29:03;101077.19;;;23.31;57.72
64739;BME280;51175;51.186;0.276;2022-08-18T00:29:34;101076.09;;;23.32;57.64
64739;BME280;51175;51.186;0.276;2022-08-18T00:30:07;101080.69;;;23.31;57.50
64739;BME280;51175;51.186;0.276;2022-08-18T00:30:38;101074.50;;;23.31;57.54
64739;BME280;51175;51.186;0.276;2022-08-18T00:31:09;101078.00;;;23.31;57.80
64739;BME280;51175;51.186;0.276;2022-08-18T00:31:39;101080.69;;;23.31;57.83
64739;BME280;51175;51.186;0.276;2022-08-18T00:32:12;101075.28;;;23.31;57.73
64739;BME280;51175;51.186;0.276;2022-08-18T00:32:48;101072.59;;;23.31;57.67
64739;BME280;51175;51.186;0.276;2022-08-18T00:33:18;101075.28;;;23.31;57.79
64739;BME280;51175;51.186;0.276;2022-08-18T00:33:49;101079.88;;;23.31;57.75
64739;BME280;51175;51.186;0.276;2022-08-18T00:34:19;101084.50;;;23.30;57.56
64739;BME280;51175;51.186;0.276;2022-08-18T00:34:51;101074.50;;;23.31;58.08
64739;BME280;51175;51.186;0.276;2022-08-18T00:35:31;101081.81;;;23.30;58.16
64739;BME280;51175;51.186;0.276;2022-08-18T00:36:01;101079.88;;;23.31;57.83
64739;BME280;51175;51.186;0.276;2022-08-18T00:36:32;101079.13;;;23.30;57.92
64739;BME280;51175;51.186;0.276;2022-08-18T00:37:04;101083.72;;;23.30;58.03
64739;BME280;51175;51.186;0.276;2022-08-18T00:37:34;101081.00;;;23.30;57.86
64739;BME280;51175;51.186;0.276;2022-08-18T00:38:06;101082.91;;;23.29;57.82
64739;BME280;51175;51.186;0.276;2022-08-18T00:38:38;101082.91;;;23.29;57.81
64739;BME280;51175;51.186;0.276;2022-08-18T00:39:09;101081.34;;;23.28;57.92
64739;BME280;51175;51.186;0.276;2022-08-18T00:39:39;101082.91;;;23.29;57.74
64739;BME280;51175;51.186;0.276;2022-08-18T00:40:13;101080.22;;;23.29;57.70
64739;BME280;51175;51.186;0.276;2022-08-18T00:40:46;101085.59;;;23.29;57.91
64739;BME280;51175;51.186;0.276;2022-08-18T00:41:18;101077.53;;;23.29;57.75
64739;BME280;51175;51.186;0.276;2022-08-18T00:41:49;101077.84;;;23.28;57.93
64739;BME280;51175;51.186;0.276;2022-08-18T00:42:23;101086.41;;;23.30;57.73
64739;BME280;51175;51.186;0.276;2022-08-18T00:42:58;101077.53;;;23.29;57.81
64739;BME280;51175;51.186;0.276;2022-08-18T00:44:05;101078.66;;;23.28;57.85
64739;BME280;51175;51.186;0.276;2022-08-18T00:44:36;101075.97;;;23.28;57.83
64739;BME280;51175;51.186;0.276;2022-08-18T00:45:07;101074.41;;;23.27;57.75
64739;BME280;51175;51.186;0.276;2022-08-18T00:45:40;101075.16;;;23.28;57.83
64739;BME280;51175;51.186;0.276;2022-08-18T00:46:24;101076.75;;;23.29;57.65
64739;BME280;51175;51.186;0.276;2022-08-18T00:46:54;101077.84;;;23.28;57.83
64739;BME280;51175;51.186;0.276;2022-08-18T00:47:25;101077.09;;;23.27;57.81
64739;BME280;51175;51.186;0.276;2022-08-18T00:47:59;101075.16;;;23.28;57.72
64739;BME280;51175;51.186;0.276;2022-08-18T00:48:29;101072.81;;;23.26;57.89
64739;BME280;51175;51.186;0.276;2022-08-18T00:49:00;101072.47;;;23.28;57.97
64739;BME280;51175;51.186;0.276;2022-08-18T00:49:31;101063.63;;;23.27;57.72
64739;BME280;51175;51.186;0.276;2022-08-18T00:50:01;101070.09;;;23.26;57.81
64739;BME280;51175;51.186;0.276;2022-08-18T00:50:41;101071.69;;;23.27;57.79
64739;BME280;51175;51.186;0.276;2022-08-18T00:51:21;101077.09;;;23.27;57.87
64739;BME280;51175;51.186;0.276;2022-08-18T00:51:53;101062.03;;;23.26;57.86
64739;BME280;51175;51.186;0.276;2022-08-18T00:52:25;101064.72;;;23.26;57.73
64739;BME280;51175;51.186;0.276;2022-08-18T00:52:59;101067.41;;;23.26;58.00
64739;BME280;51175;51.186;0.276;2022-08-18T00:53:35;101074.41;;;23.27;57.87
64739;BME280;51175;51.186;0.276;2022-08-18T00:54:23;101072.47;;;23.28;57.81
64739;BME280;51175;51.186;0.276;2022-08-18T00:54:55;101063.94;;;23.26;57.75
64739;BME280;51175;51.186;0.276;2022-08-18T00:55:27;101067.41;;;23.26;57.89
64739;BME280;51175;51.186;0.276;2022-08-18T00:56:04;101065.84;;;23.25;57.83
64739;BME280;51175;51.186;0.276;2022-08-18T00:56:40;101073.94;;;23.25;57.90
64739;BME280;51175;51.186;0.276;2022-08-18T00:57:17;101071.22;;;23.25;57.87
64739;BME280;51175;51.186;0.276;2022-08-18T00:57:54;101071.22;;;23.25;57.75
64739;BME280;51175;51.186;0.276;2022-08-18T00:58:35;101063.16;;;23.25;58.01
64739;BME280;51175;51.186;0.276;2022-08-18T00:59:12;101067.75;;;23.25;57.82
64739;BME280;51175;51.186;0.276;2022-08-18T00:59:59;101062.34;;;23.25;57.83
64739;BME280;51175;51.186;0.276;2022-08-18T01:00:41;101068.88;;;23.24;58.11
64739;BME280;51175;51.186;0.276;2022-08-18T01:01:12;101060.00;;;23.23;58.15
64739;BME280;51175;51.186;0.276;2022-08-18T01:01:43;101059.22;;;23.23;58.17
64739;BME280;51175;51.186;0.276;2022-08-18T01:02:37;101071.56;;;23.24;57.96
64739;BME280;51175;51.186;0.276;2022-08-18T01:03:13;101064.63;;;23.23;57.92
64739;BME280;51175;51.186;0.276;2022-08-18T01:03:46;101059.22;;;23.23;57.94
64739;BME280;51175;51.186;0.276;2022-08-18T01:04:32;101058.44;;;23.22;58.19
64739;BME280;51175;51.186;0.276;2022-08-18T01:05:10;101063.03;;;23.22;58.01
64739;BME280;51175;51.186;0.276;2022-08-18T01:06:08;101060.31;;;23.22;58.02
64739;BME280;51175;51.186;0.276;2022-08-18T01:06:49;101058.75;;;23.21;58.12
64739;BME280;51175;51.186;0.276;2022-08-18T01:07:38;101056.06;;;23.21;58.03
64739;BME280;51175;51.186;0.276;2022-08-18T01:08:13;101061.44;;;23.21;58.06
64739;BME280;51175;51.186;0.276;2022-08-18T01:08:44;101055.28;;;23.20;58.15
64739;BME280;51175;51.186;0.276;2022-08-18T01:09:14;101054.50;;;23.19;58.22
64739;BME280;51175;51.186;0.276;2022-08-18T01:09:48;101050.22;;;23.18;58.23
64739;BME280;51175;51.186;0.276;2022-08-18T01:10:22;101055.59;;;23.18;58.31
64739;BME280;51175;51.186;0.276;2022-08-18T01:10:53;101046.75;;;23.18;58.21
64739;BME280;51175;51.186;0.276;2022-08-18T01:11:24;101052.91;;;23.18;58.38
64739;BME280;51175;51.186;0.276;2022-08-18T01:11:55;101045.63;;;23.19;58.20
64739;BME280;51175;51.186;0.276;2022-08-18T01:12:26;101050.22;;;23.18;58.16
64739;BME280;51175;51.186;0.276;2022-08-18T01:12:58;101042.94;;;23.19;58.07
64739;BME280;51175;51.186;0.276;2022-08-18T01:13:30;101049.13;;;23.19;58.02
64739;BME280;51175;51.186;0.276;2022-08-18T01:14:06;101043.72;;;23.19;58.25
64739;BME280;51175;51.186;0.276;2022-08-18T01:14:37;101045.63;;;23.19;58.21
64739;BME280;51175;51.186;0.276;2022-08-18T01:15:08;101050.69;;;23.21;58.56
64739;BME280;51175;51.186;0.276;2022-08-18T01:15:39;101045.28;;;23.21;58.54
64739;BME280;51175;51.186;0.276;2022-08-18T01:16:10;101043.72;;;23.19;58.86
64739;BME280;51175;51.186;0.276;2022-08-18T01:16:59;101039.91;;;23.21;58.53
64739;BME280;51175;51.186;0.276;2022-08-18T01:17:49;101049.88;;;23.20;58.27
64739;BME280;51175;51.186;0.276;2022-08-18T01:18:38;101049.13;;;23.19;58.48
64739;BME280;51175;51.186;0.276;2022-08-18T01:19:27;101050.22;;;23.18;58.40
64739;BME280;51175;51.186;0.276;2022-08-18T01:20:21;101041.38;;;23.18;58.61
64739;BME280;51175;51.186;0.276;2022-08-18T01:21:21;101040.56;;;23.17;58.42
64739;BME280;51175;51.186;0.276;2022-08-18T01:22:23;101038.22;;;23.16;58.40
64739;BME280;51175;51.186;0.276;2022-08-18T01:23:01;101039.00;;;23.16;58.76
64739;BME280;51175;51.186;0.276;2022-08-18T01:23:34;101040.09;;;23.15;58.63
64739;BME280;51175;51.186;0.276;2022-08-18T01:24:07;101040.09;;;23.15;58.62
64739;BME280;51175;51.186;0.276;2022-08-18T01:24:39;101033.94;;;23.15;58.59
64739;BME280;51175;51.186;0.276;2022-08-18T01:25:29;101036.66;;;23.15;58.46
64739;BME280;51175;51.186;0.276;2022-08-18T01:26:20;101038.53;;;23.14;58.46
64739;BME280;51175;51.186;0.276;2022-08-18T01:26:51;101043.13;;;23.14;58.46
64739;BME280;51175;51.186;0.276;2022-08-18T01:27:22;101039.66;;;23.13;58.36
64739;BME280;51175;51.186;0.276;2022-08-18T01:27:53;101034.28;;;23.13;58.65
64739;BME280;51175;51.186;0.276;2022-08-18T01:28:27;101037.75;;;23.14;58.69
64739;BME280;51175;51.186;0.276;2022-08-18T01:29:03;101043.94;;;23.14;58.67
64739;BME280;51175;51.186;0.276;2022-08-18T01:29:35;101043.13;;;23.14;58.52
64739;BME280;51175;51.186;0.276;2022-08-18T01:30:09;101041.25;;;23.14;58.39
64739;BME280;51175;51.186;0.276;2022-08-18T01:30:46;101036.66;;;23.15;58.55
64739;BME280;51175;51.186;0.276;2022-08-18T01:31:37;101037.41;;;23.15;58.63
64739;BME280;51175;51.186;0.276;2022-08-18T01:32:08;101037.41;;;23.15;58.27
64739;BME280;51175;51.186;0.276;2022-08-18T01:32:39;101040.91;;;23.16;58.53
64739;BME280;51175;51.186;0.276;2022-08-18T01:33:10;101039.34;;;23.15;58.63
64739;BME280;51175;51.186;0.276;2022-08-18T01:33:42;101033.63;;;23.16;58.70
64739;BME280;51175;51.186;0.276;2022-08-18T01:34:13;101042.81;;;23.15;58.78
64739;BME280;51175;51.186;0.276;2022-08-18T01:34:45;101039.78;;;23.17;58.43
64739;BME280;51175;51.186;0.276;2022-08-18T01:35:17;101034.72;;;23.15;58.45
64739;BME280;51175;51.186;0.276;2022-08-18T01:35:50;101032.50;;;23.17;58.53
64739;BME280;51175;51.186;0.276;2022-08-18T01:36:20;101038.22;;;23.16;58.64
64739;BME280;51175;51.186;0.276;2022-08-18T01:36:51;101042.47;;;23.17;58.48
64739;BME280;51175;51.186;0.276;2022-08-18T01:37:23;101039.78;;;23.17;58.48
64739;BME280;51175;51.186;0.276;2022-08-18T01:37:54;101042.47;;;23.17;58.34
64739;BME280;51175;51.186;0.276;2022-08-18T01:38:25;101041.38;;;23.18;58.47
64739;BME280;51175;51.186;0.276;2022-08-18T01:38:56;101041.69;;;23.16;58.35
64739;BME280;51175;51.186;0.276;2022-08-18T01:39:27;101041.38;;;23.18;58.42
64739;BME280;51175;51.186;0.276;2022-08-18T01:39:57;101035.19;;;23.17;58.46
64739;BME280;51175;51.186;0.276;2022-08-18T01:40:27;101032.50;;;23.17;58.55
64739;BME280;51175;51.186;0.276;2022-08-18T01:40:58;101030.59;;;23.18;58.43
64739;BME280;51175;51.186;0.276;2022-08-18T01:41:29;101033.28;;;23.18;58.35
64739;BME280;51175;51.186;0.276;2022-08-18T01:42:00;101037.53;;;23.19;58.33
64739;BME280;51175;51.186;0.276;2022-08-18T01:42:32;101037.53;;;23.19;58.45
64739;BME280;51175;51.186;0.276;2022-08-18T01:43:03;101031.34;;;23.18;58.44
64739;BME280;51175;51.186;0.276;2022-08-18T01:43:35;101038.34;;;23.19;58.36
64739;BME280;51175;51.186;0.276;2022-08-18T01:44:06;101036.75;;;23.18;58.33
64739;BME280;51175;51.186;0.276;2022-08-18T01:44:42;101040.25;;;23.19;58.45
64739;BME280;51175;51.186;0.276;2022-08-18T01:45:16;101042.94;;;23.19;58.42
64739;BME280;51175;51.186;0.276;2022-08-18T01:45:46;101041.03;;;23.19;58.51
64739;BME280;51175;51.186;0.276;2022-08-18T01:46:19;101036.41;;;23.20;58.25
64739;BME280;51175;51.186;0.276;2022-08-18T01:46:49;101031.03;;;23.20;58.39
64739;BME280;51175;51.186;0.276;2022-08-18T01:47:22;101039.91;;;23.21;58.46
64739;BME280;51175;51.186;0.276;2022-08-18T01:47:53;101037.22;;;23.21;58.39
64739;BME280;51175;51.186;0.276;2022-08-18T01:48:25;101033.72;;;23.20;58.51
64739;BME280;51175;51.186;0.276;2022-08-18T01:48:56;101033.72;;;23.20;58.41
64739;BME280;51175;51.186;0.276;2022-08-18T01:49:30;101039.09;;;23.20;58.51
64739;BME280;51175;51.186;0.276;2022-08-18T01:50:02;101040.69;;;23.21;58.47
64739;BME280;51175;51.186;0.276;2022-08-18T01:50:33;101039.56;;;23.22;58.43
64739;BME280;51175;51.186;0.276;2022-08-18T01:51:06;101038.00;;;23.21;58.45
64739;BME280;51175;51.186;0.276;2022-08-18T01:51:38;101042.59;;;23.21;58.27
64739;BME280;51175;51.186;0.276;2022-08-18T01:52:17;101040.69;;;23.21;58.46
64739;BME280;51175;51.186;0.276;2022-08-18T01:52:51;101039.91;;;23.21;58.30
64739;BME280;51175;51.186;0.276;2022-08-18T01:53:22;101045.28;;;23.21;58.22
64739;BME280;51175;51.186;0.276;2022-08-18T01:53:53;101041.81;;;23.20;58.28
64739;BME280;51175;51.186;0.276;2022-08-18T01:54:23;101041.81;;;23.20;58.32
64739;BME280;51175;51.186;0.276;2022-08-18T01:54:57;101047.19;;;23.20;58.33
64739;BME280;51175;51.186;0.276;2022-08-18T01:55:28;101044.50;;;23.20;58.15
64739;BME280;51175;51.186;0.276;2022-08-18T01:55:58;101045.28;;;23.21;58.45
64739;BME280;51175;51.186;0.276;2022-08-18T01:56:29;101050.69;;;23.21;58.24
64739;BME280;51175;51.186;0.276;2022-08-18T01:57:00;101048.78;;;23.21;58.36
64739;BME280;51175;51.186;0.276;2022-08-18T01:57:30;101047.97;;;23.21;58.19
64739;BME280;51175;51.186;0.276;2022-08-18T01:58:01;101046.09;;;23.21;58.33
64739;BME280;51175;51.186;0.276;2022-08-18T01:58:33;101048.78;;;23.21;58.28
64739;BME280;51175;51.186;0.276;2022-08-18T01:59:04;101043.41;;;23.21;58.53
64739;BME280;51175;51.186;0.276;2022-08-18T01:59:36;101052.25;;;23.22;58.44
64739;BME280;51175;51.186;0.276;2022-08-18T02:00:08;101046.84;;;23.22;58.31
64739;BME280;51175;51.186;0.276;2022-08-18T02:00:39;101056.06;;;23.21;58.32
64739;BME280;51175;51.186;0.276;2022-08-18T02:01:11;101055.28;;;23.20;58.44
64739;BME280;51175;51.186;0.276;2022-08-18T02:01:44;101051.47;;;23.21;58.54
64739;BME280;51175;51.186;0.276;2022-08-18T02:02:19;101048.78;;;23.21;58.62
64739;BME280;51175;51.186;0.276;2022-08-18T02:02:51;101051.47;;;23.21;58.55
64739;BME280;51175;51.186;0.276;2022-08-18T02:03:23;101053.38;;;23.21;58.38
64739;BME280;51175;51.186;0.276;2022-08-18T02:03:58;101055.28;;;23.20;58.35
64739;BME280;51175;51.186;0.276;2022-08-18T02:04:31;101054.50;;;23.19;58.32
64739;BME280;51175;51.186;0.276;2022-08-18T02:05:10;101050.69;;;23.21;58.17
64739;BME280;51175;51.186;0.276;2022-08-18T02:05:45;101053.72;;;23.19;58.27
64739;BME280;51175;51.186;0.276;2022-08-18T02:06:17;101054.50;;;23.19;58.39
64739;BME280;51175;51.186;0.276;2022-08-18T02:06:48;101052.56;;;23.20;58.36
64739;BME280;51175;51.186;0.276;2022-08-18T02:07:19;101051.00;;;23.19;58.54
64739;BME280;51175;51.186;0.276;2022-08-18T02:07:49;101048.31;;;23.19;58.32
64739;BME280;51175;51.186;0.276;2022-08-18T02:08:20;101054.50;;;23.19;58.39
64739;BME280;51175;51.186;0.276;2022-08-18T02:08:51;101051.81;;;23.19;58.38
64739;BME280;51175;51.186;0.276;2022-08-18T02:09:22;101048.31;;;23.19;58.55
64739;BME280;51175;51.186;0.276;2022-08-18T02:09:53;101052.13;;;23.18;58.39
64739;BME280;51175;51.186;0.276;2022-08-18T02:10:24;101053.72;;;23.19;58.28
64739;BME280;51175;51.186;0.276;2022-08-18T02:10:55;101051.81;;;23.19;58.25
64739;BME280;51175;51.186;0.276;2022-08-18T02:11:27;101049.88;;;23.20;58.64
64739;BME280;51175;51.186;0.276;2022-08-18T02:11:58;101045.63;;;23.19;58.17
64739;BME280;51175;51.186;0.276;2022-08-18T02:12:29;101043.72;;;23.19;58.41
64739;BME280;51175;51.186;0.276;2022-08-18T02:12:59;101043.72;;;23.19;58.37
64739;BME280;51175;51.186;0.276;2022-08-18T02:13:30;101048.31;;;23.19;58.46
64739;BME280;51175;51.186;0.276;2022-08-18T02:14:00;101045.63;;;23.19;58.51
64739;BME280;51175;51.186;0.276;2022-08-18T02:14:31;101051.00;;;23.19;58.50
64739;BME280;51175;51.186;0.276;2022-08-18T02:15:03;101044.50;;;23.20;58.58
64739;BME280;51175;51.186;0.276;2022-08-18T02:15:34;101042.59;;;23.21;58.36
64739;BME280;51175;51.186;0.276;2022-08-18T02:16:05;101054.50;;;23.19;58.47
64739;BME280;51175;51.186;0.276;2022-08-18T02:16:36;101048.31;;;23.19;58.54
64739;BME280;51175;51.186;0.276;2022-08-18T02:17:09;101044.50;;;23.20;58.18
64739;BME280;51175;51.186;0.276;2022-08-18T02:17:42;101049.13;;;23.19;58.49
64739;BME280;51175;51.186;0.276;2022-08-18T02:18:15;101058.75;;;23.21;58.32
64739;BME280;51175;51.186;0.276;2022-08-18T02:18:46;101049.13;;;23.19;58.47
64739;BME280;51175;51.186;0.276;2022-08-18T02:19:17;101048.31;;;23.19;58.62
64739;BME280;51175;51.186;0.276;2022-08-18T02:19:47;101046.75;;;23.18;58.61
64739;BME280;51175;51.186;0.276;2022-08-18T02:20:18;101053.72;;;23.19;58.52
64739;BME280;51175;51.186;0.276;2022-08-18T02:20:49;101059.88;;;23.19;58.35
64739;BME280;51175;51.186;0.276;2022-08-18T02:21:22;101052.91;;;23.18;58.33
64739;BME280;51175;51.186;0.276;2022-08-18T02:21:52;101052.91;;;23.18;58.57
64739;BME280;51175;51.186;0.276;2022-08-18T02:22:23;101050.22;;;23.18;58.57
64739;BME280;51175;51.186;0.276;2022-08-18T02:22:54;101051.00;;;23.19;58.38
64739;BME280;51175;51.186;0.276;2022-08-18T02:23:24;101052.91;;;23.18;58.39
64739;BME280;51175;51.186;0.276;2022-08-18T02:23:55;101050.22;;;23.18;58.64
64739;BME280;51175;51.186;0.276;2022-08-18T02:24:25;101053.72;;;23.19;58.39
64739;BME280;51175;51.186;0.276;2022-08-18T02:24:56;101044.81;;;23.18;58.34
64739;BME280;51175;51.186;0.276;2022-08-18T02:25:27;101044.81;;;23.18;58.32
64739;BME280;51175;51.186;0.276;2022-08-18T02:25:57;101048.31;;;23.19;58.25
64739;BME280;51175;51.186;0.276;2022-08-18T02:26:28;101051.00;;;23.19;58.50
64739;BME280;51175;51.186;0.276;2022-08-18T02:26:59;101044.81;;;23.18;58.40
64739;BME280;51175;51.186;0.276;2022-08-18T02:27:29;101053.72;;;23.19;58.43
64739;BME280;51175;51.186;0.276;2022-08-18T02:28:00;101047.53;;;23.18;58.64
64739;BME280;51175;51.186;0.276;2022-08-18T02:28:30;101045.63;;;23.19;58.40
64739;BME280;51175;51.186;0.276;2022-08-18T02:29:00;101042.13;;;23.18;58.74
64739;BME280;51175;51.186;0.276;2022-08-18T02:29:31;101047.53;;;23.18;58.67
64739;BME280;51175;51.186;0.276;2022-08-18T02:30:05;101051.81;;;23.19;58.45
64739;BME280;51175;51.186;0.276;2022-08-18T02:30:36;101050.22;;;23.18;58.61
64739;BME280;51175;51.186;0.276;2022-08-18T02:31:18;101045.63;;;23.19;58.48
64739;BME280;51175;51.186;0.276;2022-08-18T02:31:49;101047.53;;;23.18;58.49
64739;BME280;51175;51.186;0.276;2022-08-18T02:32:20;101049.44;;;23.18;58.78
64739;BME280;51175;51.186;0.276;2022-08-18T02:32:50;101046.75;;;23.18;58.66
64739;BME280;51175;51.186;0.276;2022-08-18T02:33:21;101044.06;;;23.18;58.65
64739;BME280;51175;51.186;0.276;2022-08-18T02:33:51;101047.53;;;23.18;58.58
64739;BME280;51175;51.186;0.276;2022-08-18T02:34:22;101045.97;;;23.17;58.58
64739;BME280;51175;51.186;0.276;2022-08-18T02:34:53;101037.88;;;23.17;58.52
64739;BME280;51175;51.186;0.276;2022-08-18T02:35:23;101045.97;;;23.17;58.55
64739;BME280;51175;51.186;0.276;2022-08-18T02:35:54;101037.06;;;23.17;58.57
64739;BME280;51175;51.186;0.276;2022-08-18T02:36:24;101040.56;;;23.17;58.48
64739;BME280;51175;51.186;0.276;2022-08-18T02:36:55;101044.06;;;23.18;58.48
64739;BME280;51175;51.186;0.276;2022-08-18T02:37:25;101039.78;;;23.17;58.38
64739;BME280;51175;51.186;0.276;2022-08-18T02:38:00;101039.44;;;23.18;58.49
64739;BME280;51175;51.186;0.276;2022-08-18T02:38:30;101035.97;;;23.18;58.35
64739;BME280;51175;51.186;0.276;2022-08-18T02:39:01;101035.19;;;23.17;58.31
64739;BME280;51175;51.186;0.276;2022-08-18T02:39:33;101037.06;;;23.17;58.44
64739;BME280;51175;51.186;0.276;2022-08-18T02:40:05;101038.66;;;23.18;58.51
64739;BME280;51175;51.186;0.276;2022-08-18T02:40:35;101037.06;;;23.17;58.35
64739;BME280;51175;51.186;0.276;2022-08-18T02:41:11;101042.47;;;23.17;58.36
64739;BME280;51175;51.186;0.276;2022-08-18T02:41:43;101043.25;;;23.17;58.28
64739;BME280;51175;51.186;0.276;2022-08-18T02:42:13;101040.56;;;23.17;58.16
64739;BME280;51175;51.186;0.276;2022-08-18T02:42:45;101053.25;;;23.17;58.51
64739;BME280;51175;51.186;0.276;2022-08-18T02:43:16;101049.44;;;23.18;58.24
64739;BME280;51175;51.186;0.276;2022-08-18T02:43:46;101047.84;;;23.17;58.60
64739;BME280;51175;51.186;0.276;2022-08-18T02:44:17;101048.66;;;23.17;58.60
64739;BME280;51175;51.186;0.276;2022-08-18T02:44:48;101052.13;;;23.18;58.47
64739;BME280;51175;51.186;0.276;2022-08-18T02:45:19;101043.25;;;23.17;58.43
64739;BME280;51175;51.186;0.276;2022-08-18T02:45:50;101045.16;;;23.17;58.21
64739;BME280;51175;51.186;0.276;2022-08-18T02:46:20;101047.84;;;23.17;58.22
64739;BME280;51175;51.186;0.276;2022-08-18T02:46:52;101045.97;;;23.17;58.41
64739;BME280;51175;51.186;0.276;2022-08-18T02:47:23;101050.56;;;23.17;58.14
64739;BME280;51175;51.186;0.276;2022-08-18T02:47:54;101052.13;;;23.18;58.25
64739;BME280;51175;51.186;0.276;2022-08-18T02:48:25;101042.47;;;23.17;58.26
64739;BME280;51175;51.186;0.276;2022-08-18T02:49:05;101047.84;;;23.17;58.54
64739;BME280;51175;51.186;0.276;2022-08-18T02:49:37;101050.56;;;23.17;58.43
64739;BME280;51175;51.186;0.276;2022-08-18T02:50:08;101047.84;;;23.17;58.49
64739;BME280;51175;51.186;0.276;2022-08-18T02:50:38;101039.78;;;23.17;58.36
64739;BME280;51175;51.186;0.276;2022-08-18T02:51:27;101048.97;;;23.16;58.37
64739;BME280;51175;51.186;0.276;2022-08-18T02:51:58;101049.78;;;23.16;58.37
64739;BME280;51175;51.186;0.276;2022-08-18T02:52:28;101054.38;;;23.16;58.27
64739;BME280;51175;51.186;0.276;2022-08-18T02:53:02;101050.88;;;23.15;58.21
64739;BME280;51175;51.186;0.276;2022-08-18T02:53:32;101050.88;;;23.15;58.32
64739;BME280;51175;51.186;0.276;2022-08-18T02:54:02;101052.81;;;23.15;58.44
64739;BME280;51175;51.186;0.276;2022-08-18T02:54:38;101052.00;;;23.14;58.28